sensor_id;sensor_type;location;lat;lon;timestamp;P1;durP1;ratioP1;P2;durP2;ratioP2
177;SDS011;77;48.792;9.032;2023-06-10T00:00:24;13.70;;;10.30;;
177;SDS011;77;48.792;9.032;2023-06-10T00:02:49;15.03;;;10.93;;
177;SDS011;77;48.792;9.032;2023-06-10T00:05:14;16.60;;;10.83;;
177;SDS011;77;48.792;9.032;2023-06-10T00:07:39;14.80;;;10.00;;
177;SDS011;77;48.792;9.032;2023-06-10T00:10:05;14.70;;;10.57;;
177;SDS011;77;48.792;9.032;2023-06-10T00:12:30;15.00;;;10.57;;
177;SDS011;77;48.792;9.032;2023-06-10T00:14:55;14.60;;;10.23;;
177;SDS011;77;48.792;9.032;2023-06-10T00:17:22;12.90;;;10.07;;
177;SDS011;77;48.792;9.032;2023-06-10T00:19:47;13.20;;;10.37;;
177;SDS011;77;48.792;9.032;2023-06-10T00:22:12;16.50;;;10.33;;
177;SDS011;77;48.792;9.032;2023-06-10T00:24:40;12.57;;;9.90;;
177;SDS011;77;48.792;9.032;2023-06-10T00:27:06;14.00;;;10.80;;
177;SDS011;77;48.792;9.032;2023-06-10T00:29:31;13.50;;;10.23;;
177;SDS011;77;48.792;9.032;2023-06-10T00:31:56;16.63;;;10.83;;
177;SDS011;77;48.792;9.032;2023-06-10T00:34:23;12.93;;;9.90;;
177;SDS011;77;48.792;9.032;2023-06-10T00:36:48;14.73;;;10.40;;
177;SDS011;77;48.792;9.032;2023-06-10T00:39:13;15.37;;;11.00;;
177;SDS011;77;48.792;9.032;2023-06-10T00:41:38;20.00;;;10.60;;
177;SDS011;77;48.792;9.032;2023-06-10T00:44:03;18.10;;;10.67;;
177;SDS011;77;48.792;9.032;2023-06-10T00:46:28;15.00;;;10.90;;
177;SDS011;77;48.792;9.032;2023-06-10T00:48:54;16.77;;;10.73;;
177;SDS011;77;48.792;9.032;2023-06-10T00:51:21;16.30;;;10.90;;
177;SDS011;77;48.792;9.032;2023-06-10T00:53:47;14.57;;;10.50;;
177;SDS011;77;48.792;9.032;2023-06-10T00:56:13;14.80;;;9.87;;
177;SDS011;77;48.792;9.032;2023-06-10T00:58:38;13.57;;;10.23;;
177;SDS011;77;48.792;9.032;2023-06-10T01:01:04;12.97;;;9.60;;
177;SDS011;77;48.792;9.032;2023-06-10T01:03:29;13.33;;;9.33;;
177;SDS011;77;48.792;9.032;2023-06-10T01:05:57;11.80;;;9.43;;
177;SDS011;77;48.792;9.032;2023-06-10T01:08:27;12.27;;;8.77;;
177;SDS011;77;48.792;9.032;2023-06-10T01:10:53;13.63;;;9.50;;
177;SDS011;77;48.792;9.032;2023-06-10T01:13:19;11.57;;;9.37;;
177;SDS011;77;48.792;9.032;2023-06-10T01:15:45;12.73;;;9.17;;
177;SDS011;77;48.792;9.032;2023-06-10T01:18:10;13.63;;;10.03;;
177;SDS011;77;48.792;9.032;2023-06-10T01:20:36;12.20;;;9.07;;
177;SDS011;77;48.792;9.032;2023-06-10T01:23:03;14.57;;;9.17;;
177;SDS011;77;48.792;9.032;2023-06-10T01:25:28;12.77;;;9.53;;
177;SDS011;77;48.792;9.032;2023-06-10T01:27:54;11.70;;;9.70;;
177;SDS011;77;48.792;9.032;2023-06-10T01:30:25;11.93;;;9.20;;
177;SDS011;77;48.792;9.032;2023-06-10T01:32:51;15.80;;;9.37;;
177;SDS011;77;48.792;9.032;2023-06-10T01:35:17;11.33;;;8.93;;
177;SDS011;77;48.792;9.032;2023-06-10T01:37:45;12.33;;;9.47;;
177;SDS011;77;48.792;9.032;2023-06-10T01:40:13;15.10;;;9.70;;
177;SDS011;77;48.792;9.032;2023-06-10T01:42:38;13.27;;;8.93;;
177;SDS011;77;48.792;9.032;2023-06-10T01:45:04;12.40;;;9.00;;
177;SDS011;77;48.792;9.032;2023-06-10T01:47:29;12.93;;;9.20;;
177;SDS011;77;48.792;9.032;2023-06-10T01:49:54;13.20;;;9.20;;
177;SDS011;77;48.792;9.032;2023-06-10T01:52:19;11.90;;;9.13;;
177;SDS011;77;48.792;9.032;2023-06-10T01:54:45;15.20;;;10.00;;
177;SDS011;77;48.792;9.032;2023-06-10T01:57:14;12.30;;;9.20;;
177;SDS011;77;48.792;9.032;2023-06-10T01:59:39;13.93;;;9.67;;
177;SDS011;77;48.792;9.032;2023-06-10T02:02:04;19.43;;;10.07;;
177;SDS011;77;48.792;9.032;2023-06-10T02:04:30;12.73;;;9.60;;
177;SDS011;77;48.792;9.032;2023-06-10T02:06:55;14.77;;;10.60;;
177;SDS011;77;48.792;9.032;2023-06-10T02:09:20;13.40;;;10.17;;
177;SDS011;77;48.792;9.032;2023-06-10T02:11:45;14.33;;;10.43;;
177;SDS011;77;48.792;9.032;2023-06-10T02:14:12;12.77;;;9.90;;
177;SDS011;77;48.792;9.032;2023-06-10T02:16:37;14.47;;;10.57;;
177;SDS011;77;48.792;9.032;2023-06-10T02:19:02;15.37;;;10.63;;
177;SDS011;77;48.792;9.032;2023-06-10T02:21:27;15.00;;;11.07;;
177;SDS011;77;48.792;9.032;2023-06-10T02:23:53;15.13;;;11.57;;
177;SDS011;77;48.792;9.032;2023-06-10T02:26:18;18.17;;;11.80;;
177;SDS011;77;48.792;9.032;2023-06-10T02:28:43;14.60;;;11.13;;
177;SDS011;77;48.792;9.032;2023-06-10T02:31:10;17.63;;;11.33;;
177;SDS011;77;48.792;9.032;2023-06-10T02:33:35;18.50;;;11.70;;
177;SDS011;77;48.792;9.032;2023-06-10T02:36:00;15.43;;;11.57;;
177;SDS011;77;48.792;9.032;2023-06-10T02:38:25;14.80;;;11.10;;
177;SDS011;77;48.792;9.032;2023-06-10T02:40:51;13.87;;;11.13;;
177;SDS011;77;48.792;9.032;2023-06-10T02:43:16;17.90;;;10.70;;
177;SDS011;77;48.792;9.032;2023-06-10T02:45:41;18.00;;;11.47;;
177;SDS011;77;48.792;9.032;2023-06-10T02:48:08;15.60;;;11.70;;
177;SDS011;77;48.792;9.032;2023-06-10T02:50:33;16.67;;;11.90;;
177;SDS011;77;48.792;9.032;2023-06-10T02:52:58;16.90;;;11.50;;
177;SDS011;77;48.792;9.032;2023-06-10T02:55:23;14.40;;;11.10;;
177;SDS011;77;48.792;9.032;2023-06-10T02:57:48;17.30;;;12.00;;
177;SDS011;77;48.792;9.032;2023-06-10T03:00:14;17.00;;;11.60;;
177;SDS011;77;48.792;9.032;2023-06-10T03:02:39;17.23;;;11.77;;
177;SDS011;77;48.792;9.032;2023-06-10T03:05:06;19.30;;;12.17;;
177;SDS011;77;48.792;9.032;2023-06-10T03:07:32;16.77;;;12.10;;
177;SDS011;77;48.792;9.032;2023-06-10T03:09:57;15.67;;;11.30;;
177;SDS011;77;48.792;9.032;2023-06-10T03:12:22;15.27;;;11.80;;
177;SDS011;77;48.792;9.032;2023-06-10T03:14:47;17.43;;;12.07;;
177;SDS011;77;48.792;9.032;2023-06-10T03:17:13;15.97;;;12.30;;
177;SDS011;77;48.792;9.032;2023-06-10T03:19:38;17.00;;;11.90;;
177;SDS011;77;48.792;9.032;2023-06-10T03:22:08;16.00;;;12.43;;
177;SDS011;77;48.792;9.032;2023-06-10T03:24:34;16.23;;;11.70;;
177;SDS011;77;48.792;9.032;2023-06-10T03:26:59;19.40;;;11.80;;
177;SDS011;77;48.792;9.032;2023-06-10T03:29:25;18.60;;;12.27;;
177;SDS011;77;48.792;9.032;2023-06-10T03:31:50;15.47;;;12.23;;
177;SDS011;77;48.792;9.032;2023-06-10T03:34:15;15.93;;;12.23;;
177;SDS011;77;48.792;9.032;2023-06-10T03:36:40;18.17;;;12.30;;
177;SDS011;77;48.792;9.032;2023-06-10T03:39:07;15.20;;;11.50;;
177;SDS011;77;48.792;9.032;2023-06-10T03:41:32;16.50;;;12.23;;
177;SDS011;77;48.792;9.032;2023-06-10T03:43:57;16.73;;;12.50;;
177;SDS011;77;48.792;9.032;2023-06-10T03:46:22;15.13;;;11.70;;
177;SDS011;77;48.792;9.032;2023-06-10T03:48:47;15.93;;;11.60;;
177;SDS011;77;48.792;9.032;2023-06-10T03:51:13;14.80;;;11.00;;
177;SDS011;77;48.792;9.032;2023-06-10T03:53:38;15.50;;;11.63;;
177;SDS011;77;48.792;9.032;2023-06-10T03:56:05;15.30;;;11.73;;
177;SDS011;77;48.792;9.032;2023-06-10T03:58:30;18.03;;;11.83;;
177;SDS011;77;48.792;9.032;2023-06-10T04:00:55;16.77;;;12.47;;
177;SDS011;77;48.792;9.032;2023-06-10T04:03:20;15.83;;;12.00;;
177;SDS011;77;48.792;9.032;2023-06-10T04:05:45;15.70;;;12.10;;
177;SDS011;77;48.792;9.032;2023-06-10T04:08:11;17.63;;;12.10;;
177;SDS011;77;48.792;9.032;2023-06-10T04:10:36;15.87;;;12.03;;
177;SDS011;77;48.792;9.032;2023-06-10T04:13:02;16.43;;;11.63;;
177;SDS011;77;48.792;9.032;2023-06-10T04:15:27;17.50;;;12.47;;
177;SDS011;77;48.792;9.032;2023-06-10T04:17:53;17.87;;;12.73;;
177;SDS011;77;48.792;9.032;2023-06-10T04:20:18;18.27;;;12.50;;
177;SDS011;77;48.792;9.032;2023-06-10T04:22:43;17.67;;;12.57;;
177;SDS011;77;48.792;9.032;2023-06-10T04:25:09;18.90;;;12.90;;
177;SDS011;77;48.792;9.032;2023-06-10T04:27:34;15.40;;;11.43;;
177;SDS011;77;48.792;9.032;2023-06-10T04:30:01;16.50;;;12.37;;
177;SDS011;77;48.792;9.032;2023-06-10T04:32:26;15.40;;;12.00;;
177;SDS011;77;48.792;9.032;2023-06-10T04:34:51;15.37;;;11.77;;
177;SDS011;77;48.792;9.032;2023-06-10T04:37:16;14.80;;;10.60;;
177;SDS011;77;48.792;9.032;2023-06-10T04:39:41;15.00;;;10.63;;
177;SDS011;77;48.792;9.032;2023-06-10T04:42:07;16.70;;;11.20;;
177;SDS011;77;48.792;9.032;2023-06-10T04:44:32;13.20;;;10.30;;
177;SDS011;77;48.792;9.032;2023-06-10T04:46:58;15.90;;;11.37;;
177;SDS011;77;48.792;9.032;2023-06-10T04:49:24;16.10;;;11.50;;
177;SDS011;77;48.792;9.032;2023-06-10T04:51:49;14.20;;;10.77;;
177;SDS011;77;48.792;9.032;2023-06-10T04:54:14;15.13;;;11.70;;
177;SDS011;77;48.792;9.032;2023-06-10T04:56:39;17.40;;;12.30;;
177;SDS011;77;48.792;9.032;2023-06-10T04:59:04;16.73;;;11.10;;
177;SDS011;77;48.792;9.032;2023-06-10T05:01:29;16.37;;;12.00;;
177;SDS011;77;48.792;9.032;2023-06-10T05:03:56;15.90;;;11.30;;
177;SDS011;77;48.792;9.032;2023-06-10T05:06:21;19.70;;;12.17;;
177;SDS011;77;48.792;9.032;2023-06-10T05:08:46;16.00;;;11.97;;
177;SDS011;77;48.792;9.032;2023-06-10T05:11:12;17.53;;;12.40;;
177;SDS011;77;48.792;9.032;2023-06-10T05:13:37;15.80;;;12.53;;
177;SDS011;77;48.792;9.032;2023-06-10T05:16:03;15.93;;;12.10;;
177;SDS011;77;48.792;9.032;2023-06-10T05:18:28;16.70;;;12.50;;
177;SDS011;77;48.792;9.032;2023-06-10T05:20:55;17.93;;;12.30;;
177;SDS011;77;48.792;9.032;2023-06-10T05:23:20;17.23;;;12.00;;
177;SDS011;77;48.792;9.032;2023-06-10T05:25:45;17.67;;;12.50;;
177;SDS011;77;48.792;9.032;2023-06-10T05:28:10;15.93;;;12.40;;
177;SDS011;77;48.792;9.032;2023-06-10T05:30:35;17.10;;;12.47;;
177;SDS011;77;48.792;9.032;2023-06-10T05:33:01;18.47;;;13.07;;
177;SDS011;77;48.792;9.032;2023-06-10T05:35:26;18.37;;;12.73;;
177;SDS011;77;48.792;9.032;2023-06-10T05:37:52;15.70;;;12.23;;
177;SDS011;77;48.792;9.032;2023-06-10T05:40:18;16.70;;;12.20;;
177;SDS011;77;48.792;9.032;2023-06-10T05:42:43;17.90;;;11.97;;
177;SDS011;77;48.792;9.032;2023-06-10T05:45:09;18.53;;;12.27;;
177;SDS011;77;48.792;9.032;2023-06-10T05:47:37;17.20;;;11.87;;
177;SDS011;77;48.792;9.032;2023-06-10T05:50:02;16.57;;;12.17;;
177;SDS011;77;48.792;9.032;2023-06-10T05:52:27;15.83;;;11.60;;
177;SDS011;77;48.792;9.032;2023-06-10T05:54:54;16.77;;;11.70;;
177;SDS011;77;48.792;9.032;2023-06-10T05:57:19;16.60;;;11.80;;
177;SDS011;77;48.792;9.032;2023-06-10T05:59:44;15.13;;;11.10;;
177;SDS011;77;48.792;9.032;2023-06-10T06:02:09;18.73;;;11.37;;
177;SDS011;77;48.792;9.032;2023-06-10T06:04:35;16.33;;;11.30;;
177;SDS011;77;48.792;9.032;2023-06-10T06:07:00;13.73;;;10.33;;
177;SDS011;77;48.792;9.032;2023-06-10T06:09:25;12.63;;;9.20;;
177;SDS011;77;48.792;9.032;2023-06-10T06:11:52;15.97;;;10.27;;
177;SDS011;77;48.792;9.032;2023-06-10T06:14:17;13.13;;;9.90;;
177;SDS011;77;48.792;9.032;2023-06-10T06:16:42;19.20;;;9.70;;
177;SDS011;77;48.792;9.032;2023-06-10T06:19:07;13.73;;;9.77;;
177;SDS011;77;48.792;9.032;2023-06-10T06:21:33;15.00;;;10.13;;
177;SDS011;77;48.792;9.032;2023-06-10T06:23:58;13.33;;;9.77;;
177;SDS011;77;48.792;9.032;2023-06-10T06:26:24;13.10;;;9.50;;
177;SDS011;77;48.792;9.032;2023-06-10T06:28:50;13.03;;;9.30;;
177;SDS011;77;48.792;9.032;2023-06-10T06:31:15;12.80;;;9.20;;
177;SDS011;77;48.792;9.032;2023-06-10T06:33:40;12.80;;;9.60;;
177;SDS011;77;48.792;9.032;2023-06-10T06:36:06;12.87;;;9.17;;
177;SDS011;77;48.792;9.032;2023-06-10T06:38:31;12.80;;;9.27;;
177;SDS011;77;48.792;9.032;2023-06-10T06:40:56;13.93;;;10.13;;
177;SDS011;77;48.792;9.032;2023-06-10T06:43:21;13.10;;;9.30;;
177;SDS011;77;48.792;9.032;2023-06-10T06:45:48;12.90;;;9.47;;
177;SDS011;77;48.792;9.032;2023-06-10T06:48:13;13.43;;;9.43;;
177;SDS011;77;48.792;9.032;2023-06-10T06:50:38;11.43;;;8.77;;
177;SDS011;77;48.792;9.032;2023-06-10T06:53:04;12.23;;;9.23;;
177;SDS011;77;48.792;9.032;2023-06-10T06:55:29;14.17;;;9.07;;
177;SDS011;77;48.792;9.032;2023-06-10T06:57:54;12.10;;;8.40;;
177;SDS011;77;48.792;9.032;2023-06-10T07:00:20;11.53;;;8.40;;
177;SDS011;77;48.792;9.032;2023-06-10T07:02:46;13.50;;;8.80;;
177;SDS011;77;48.792;9.032;2023-06-10T07:05:11;12.40;;;8.80;;
177;SDS011;77;48.792;9.032;2023-06-10T07:07:37;13.63;;;8.10;;
177;SDS011;77;48.792;9.032;2023-06-10T07:10:02;13.00;;;8.80;;
177;SDS011;77;48.792;9.032;2023-06-10T07:12:27;11.87;;;8.40;;
177;SDS011;77;48.792;9.032;2023-06-10T07:14:52;14.07;;;8.50;;
177;SDS011;77;48.792;9.032;2023-06-10T07:17:17;13.83;;;8.60;;
177;SDS011;77;48.792;9.032;2023-06-10T07:19:44;10.67;;;8.00;;
177;SDS011;77;48.792;9.032;2023-06-10T07:22:10;13.13;;;9.10;;
177;SDS011;77;48.792;9.032;2023-06-10T07:24:35;14.73;;;8.70;;
177;SDS011;77;48.792;9.032;2023-06-10T07:27:00;9.48;;;7.15;;
177;SDS011;77;48.792;9.032;2023-06-10T07:29:25;10.30;;;7.10;;
177;SDS011;77;48.792;9.032;2023-06-10T07:31:50;9.43;;;7.03;;
177;SDS011;77;48.792;9.032;2023-06-10T07:34:15;10.47;;;7.07;;
177;SDS011;77;48.792;9.032;2023-06-10T07:36:42;11.00;;;7.40;;
177;SDS011;77;48.792;9.032;2023-06-10T07:39:07;10.60;;;7.33;;
177;SDS011;77;48.792;9.032;2023-06-10T07:41:32;10.63;;;7.10;;
177;SDS011;77;48.792;9.032;2023-06-10T07:43:57;9.30;;;6.77;;
177;SDS011;77;48.792;9.032;2023-06-10T07:46:23;10.17;;;7.57;;
177;SDS011;77;48.792;9.032;2023-06-10T07:48:48;11.57;;;7.10;;
177;SDS011;77;48.792;9.032;2023-06-10T07:51:14;9.87;;;7.40;;
177;SDS011;77;48.792;9.032;2023-06-10T07:53:41;12.00;;;7.03;;
177;SDS011;77;48.792;9.032;2023-06-10T07:56:06;11.40;;;7.60;;
177;SDS011;77;48.792;9.032;2023-06-10T07:58:31;11.37;;;7.53;;
177;SDS011;77;48.792;9.032;2023-06-10T08:00:56;11.23;;;8.10;;
177;SDS011;77;48.792;9.032;2023-06-10T08:03:21;11.33;;;8.37;;
177;SDS011;77;48.792;9.032;2023-06-10T08:05:47;12.07;;;7.97;;
177;SDS011;77;48.792;9.032;2023-06-10T08:08:12;10.83;;;8.20;;
177;SDS011;77;48.792;9.032;2023-06-10T08:10:39;12.43;;;7.80;;
177;SDS011;77;48.792;9.032;2023-06-10T08:13:04;11.20;;;8.30;;
177;SDS011;77;48.792;9.032;2023-06-10T08:15:29;11.87;;;8.80;;
177;SDS011;77;48.792;9.032;2023-06-10T08:17:54;13.80;;;8.53;;
177;SDS011;77;48.792;9.032;2023-06-10T08:20:19;12.47;;;8.47;;
177;SDS011;77;48.792;9.032;2023-06-10T08:22:44;12.37;;;8.63;;
177;SDS011;77;48.792;9.032;2023-06-10T08:25:09;14.63;;;8.00;;
177;SDS011;77;48.792;9.032;2023-06-10T08:27:36;11.27;;;7.83;;
177;SDS011;77;48.792;9.032;2023-06-10T08:30:01;11.20;;;8.03;;
177;SDS011;77;48.792;9.032;2023-06-10T08:32:26;10.17;;;7.60;;
177;SDS011;77;48.792;9.032;2023-06-10T08:34:52;11.87;;;8.43;;
177;SDS011;77;48.792;9.032;2023-06-10T08:37:17;11.53;;;8.70;;
177;SDS011;77;48.792;9.032;2023-06-10T08:39:42;10.13;;;7.93;;
177;SDS011;77;48.792;9.032;2023-06-10T08:42:10;11.60;;;8.70;;
177;SDS011;77;48.792;9.032;2023-06-10T08:44:37;12.27;;;8.03;;
177;SDS011;77;48.792;9.032;2023-06-10T08:47:03;10.67;;;8.17;;
177;SDS011;77;48.792;9.032;2023-06-10T08:49:30;15.03;;;8.20;;
177;SDS011;77;48.792;9.032;2023-06-10T08:51:58;10.10;;;7.67;;
177;SDS011;77;48.792;9.032;2023-06-10T08:54:25;10.10;;;7.70;;
177;SDS011;77;48.792;9.032;2023-06-10T08:56:51;11.30;;;7.67;;
177;SDS011;77;48.792;9.032;2023-06-10T08:59:19;10.50;;;7.80;;
177;SDS011;77;48.792;9.032;2023-06-10T09:01:46;11.33;;;8.10;;
177;SDS011;77;48.792;9.032;2023-06-10T09:04:11;11.70;;;8.10;;
177;SDS011;77;48.792;9.032;2023-06-10T09:06:36;10.37;;;7.67;;
177;SDS011;77;48.792;9.032;2023-06-10T09:09:02;10.90;;;7.80;;
177;SDS011;77;48.792;9.032;2023-06-10T09:11:27;11.07;;;8.10;;
177;SDS011;77;48.792;9.032;2023-06-10T09:13:52;11.00;;;8.00;;
177;SDS011;77;48.792;9.032;2023-06-10T09:16:17;11.67;;;7.87;;
177;SDS011;77;48.792;9.032;2023-06-10T09:18:44;11.33;;;7.77;;
177;SDS011;77;48.792;9.032;2023-06-10T09:21:10;11.77;;;8.10;;
177;SDS011;77;48.792;9.032;2023-06-10T09:23:35;11.63;;;8.10;;
177;SDS011;77;48.792;9.032;2023-06-10T09:26:01;11.40;;;7.70;;
177;SDS011;77;48.792;9.032;2023-06-10T09:28:26;13.70;;;8.23;;
177;SDS011;77;48.792;9.032;2023-06-10T09:31:01;11.83;;;7.73;;
177;SDS011;77;48.792;9.032;2023-06-10T09:33:26;11.30;;;8.70;;
177;SDS011;77;48.792;9.032;2023-06-10T09:35:53;19.43;;;10.00;;
177;SDS011;77;48.792;9.032;2023-06-10T09:38:19;10.80;;;8.20;;
177;SDS011;77;48.792;9.032;2023-06-10T09:40:49;12.23;;;7.87;;
177;SDS011;77;48.792;9.032;2023-06-10T09:43:14;14.67;;;8.33;;
177;SDS011;77;48.792;9.032;2023-06-10T09:45:39;11.23;;;7.83;;
177;SDS011;77;48.792;9.032;2023-06-10T09:48:04;10.50;;;8.10;;
177;SDS011;77;48.792;9.032;2023-06-10T09:50:32;10.70;;;8.00;;
177;SDS011;77;48.792;9.032;2023-06-10T09:52:59;14.50;;;8.40;;
177;SDS011;77;48.792;9.032;2023-06-10T09:55:24;10.50;;;7.27;;
177;SDS011;77;48.792;9.032;2023-06-10T09:57:52;11.70;;;7.90;;
177;SDS011;77;48.792;9.032;2023-06-10T10:00:18;13.83;;;8.37;;
177;SDS011;77;48.792;9.032;2023-06-10T10:02:44;12.40;;;7.73;;
177;SDS011;77;48.792;9.032;2023-06-10T10:05:10;12.40;;;7.60;;
177;SDS011;77;48.792;9.032;2023-06-10T10:07:35;9.23;;;6.97;;
177;SDS011;77;48.792;9.032;2023-06-10T10:10:01;10.50;;;7.73;;
177;SDS011;77;48.792;9.032;2023-06-10T10:12:26;10.43;;;7.93;;
177;SDS011;77;48.792;9.032;2023-06-10T10:14:52;13.30;;;7.37;;
177;SDS011;77;48.792;9.032;2023-06-10T10:17:19;11.83;;;7.67;;
177;SDS011;77;48.792;9.032;2023-06-10T10:19:46;9.50;;;7.50;;
177;SDS011;77;48.792;9.032;2023-06-10T10:22:15;10.80;;;8.10;;
177;SDS011;77;48.792;9.032;2023-06-10T10:24:45;12.43;;;7.80;;
177;SDS011;77;48.792;9.032;2023-06-10T10:27:14;9.40;;;7.30;;
177;SDS011;77;48.792;9.032;2023-06-10T10:29:42;9.77;;;6.90;;
177;SDS011;77;48.792;9.032;2023-06-10T10:32:09;10.93;;;7.80;;
177;SDS011;77;48.792;9.032;2023-06-10T10:34:37;10.60;;;7.30;;
177;SDS011;77;48.792;9.032;2023-06-10T10:37:03;9.90;;;7.03;;
177;SDS011;77;48.792;9.032;2023-06-10T10:39:29;9.77;;;7.00;;
177;SDS011;77;48.792;9.032;2023-06-10T10:41:54;13.00;;;7.40;;
177;SDS011;77;48.792;9.032;2023-06-10T10:44:22;9.93;;;7.50;;
177;SDS011;77;48.792;9.032;2023-06-10T10:46:48;8.67;;;7.17;;
177;SDS011;77;48.792;9.032;2023-06-10T10:49:14;9.30;;;7.30;;
177;SDS011;77;48.792;9.032;2023-06-10T10:51:53;11.83;;;7.60;;
177;SDS011;77;48.792;9.032;2023-06-10T10:54:19;10.60;;;7.40;;
177;SDS011;77;48.792;9.032;2023-06-10T10:59:44;9.23;;;7.27;;
177;SDS011;77;48.792;9.032;2023-06-10T11:02:09;9.80;;;7.50;;
177;SDS011;77;48.792;9.032;2023-06-10T11:04:34;11.23;;;7.20;;
177;SDS011;77;48.792;9.032;2023-06-10T11:07:05;11.30;;;7.60;;
177;SDS011;77;48.792;9.032;2023-06-10T11:09:30;9.20;;;7.10;;
177;SDS011;77;48.792;9.032;2023-06-10T11:11:56;8.70;;;7.28;;
177;SDS011;77;48.792;9.032;2023-06-10T11:14:25;10.27;;;7.57;;
177;SDS011;77;48.792;9.032;2023-06-10T11:16:52;18.77;;;7.70;;
177;SDS011;77;48.792;9.032;2023-06-10T11:19:31;10.70;;;7.77;;
177;SDS011;77;48.792;9.032;2023-06-10T11:21:59;10.20;;;7.20;;
177;SDS011;77;48.792;9.032;2023-06-10T11:24:25;9.17;;;7.30;;
177;SDS011;77;48.792;9.032;2023-06-10T11:26:50;11.60;;;7.80;;
177;SDS011;77;48.792;9.032;2023-06-10T11:29:15;10.43;;;7.83;;
177;SDS011;77;48.792;9.032;2023-06-10T11:31:41;10.40;;;7.43;;
177;SDS011;77;48.792;9.032;2023-06-10T11:34:08;9.50;;;7.23;;
177;SDS011;77;48.792;9.032;2023-06-10T11:36:35;10.20;;;7.40;;
177;SDS011;77;48.792;9.032;2023-06-10T11:39:02;9.07;;;7.50;;
177;SDS011;77;48.792;9.032;2023-06-10T11:41:27;11.80;;;7.47;;
177;SDS011;77;48.792;9.032;2023-06-10T11:43:53;9.00;;;6.90;;
177;SDS011;77;48.792;9.032;2023-06-10T11:46:18;11.03;;;7.50;;
177;SDS011;77;48.792;9.032;2023-06-10T11:48:48;10.20;;;7.70;;
177;SDS011;77;48.792;9.032;2023-06-10T11:51:14;11.90;;;7.40;;
177;SDS011;77;48.792;9.032;2023-06-10T11:53:40;8.73;;;7.07;;
177;SDS011;77;48.792;9.032;2023-06-10T11:56:05;9.40;;;7.10;;
177;SDS011;77;48.792;9.032;2023-06-10T11:58:30;9.50;;;6.77;;
177;SDS011;77;48.792;9.032;2023-06-10T12:00:55;9.80;;;6.57;;
177;SDS011;77;48.792;9.032;2023-06-10T12:03:21;10.50;;;6.40;;
177;SDS011;77;48.792;9.032;2023-06-10T12:05:55;10.07;;;6.70;;
177;SDS011;77;48.792;9.032;2023-06-10T12:08:22;9.80;;;6.70;;
177;SDS011;77;48.792;9.032;2023-06-10T12:10:47;9.80;;;6.57;;
177;SDS011;77;48.792;9.032;2023-06-10T12:13:13;8.17;;;6.83;;
177;SDS011;77;48.792;9.032;2023-06-10T12:15:38;11.50;;;6.70;;
177;SDS011;77;48.792;9.032;2023-06-10T12:18:03;8.10;;;6.43;;
177;SDS011;77;48.792;9.032;2023-06-10T12:20:29;8.13;;;6.50;;
177;SDS011;77;48.792;9.032;2023-06-10T12:22:54;8.53;;;6.47;;
177;SDS011;77;48.792;9.032;2023-06-10T12:25:25;8.67;;;6.57;;
177;SDS011;77;48.792;9.032;2023-06-10T12:27:51;9.07;;;7.00;;
177;SDS011;77;48.792;9.032;2023-06-10T12:30:18;8.50;;;6.63;;
177;SDS011;77;48.792;9.032;2023-06-10T12:32:44;9.87;;;7.00;;
177;SDS011;77;48.792;9.032;2023-06-10T12:35:10;9.60;;;6.73;;
177;SDS011;77;48.792;9.032;2023-06-10T12:37:35;9.90;;;7.10;;
177;SDS011;77;48.792;9.032;2023-06-10T12:40:00;10.17;;;6.83;;
177;SDS011;77;48.792;9.032;2023-06-10T12:42:27;8.43;;;6.80;;
177;SDS011;77;48.792;9.032;2023-06-10T12:44:53;8.67;;;6.70;;
177;SDS011;77;48.792;9.032;2023-06-10T12:47:18;10.17;;;7.03;;
177;SDS011;77;48.792;9.032;2023-06-10T12:49:44;9.27;;;6.90;;
177;SDS011;77;48.792;9.032;2023-06-10T12:52:09;9.20;;;7.07;;
177;SDS011;77;48.792;9.032;2023-06-10T12:54:34;8.70;;;6.60;;
177;SDS011;77;48.792;9.032;2023-06-10T12:56:59;10.00;;;6.80;;
177;SDS011;77;48.792;9.032;2023-06-10T12:59:26;9.30;;;6.50;;
177;SDS011;77;48.792;9.032;2023-06-10T13:01:51;9.53;;;6.80;;
177;SDS011;77;48.792;9.032;2023-06-10T13:04:16;8.00;;;6.43;;
177;SDS011;77;48.792;9.032;2023-06-10T13:06:41;10.57;;;7.50;;
177;SDS011;77;48.792;9.032;2023-06-10T13:09:07;10.43;;;6.70;;
177;SDS011;77;48.792;9.032;2023-06-10T13:11:32;9.55;;;6.75;;
177;SDS011;77;48.792;9.032;2023-06-10T13:13:57;8.90;;;6.70;;
177;SDS011;77;48.792;9.032;2023-06-10T13:16:23;8.63;;;6.67;;
177;SDS011;77;48.792;9.032;2023-06-10T13:18:49;10.00;;;7.20;;
177;SDS011;77;48.792;9.032;2023-06-10T13:21:14;9.50;;;6.83;;
177;SDS011;77;48.792;9.032;2023-06-10T13:23:39;9.53;;;6.83;;
177;SDS011;77;48.792;9.032;2023-06-10T13:26:04;9.38;;;6.88;;
177;SDS011;77;48.792;9.032;2023-06-10T13:28:29;12.83;;;7.50;;
177;SDS011;77;48.792;9.032;2023-06-10T13:30:54;10.93;;;6.70;;
177;SDS011;77;48.792;9.032;2023-06-10T13:33:21;11.83;;;7.03;;
177;SDS011;77;48.792;9.032;2023-06-10T13:35:46;8.60;;;6.50;;
177;SDS011;77;48.792;9.032;2023-06-10T13:38:11;8.27;;;6.17;;
177;SDS011;77;48.792;9.032;2023-06-10T13:40:36;8.68;;;6.00;;
177;SDS011;77;48.792;9.032;2023-06-10T13:43:01;8.03;;;6.40;;
177;SDS011;77;48.792;9.032;2023-06-10T13:45:26;8.10;;;5.90;;
177;SDS011;77;48.792;9.032;2023-06-10T13:47:52;7.22;;;5.68;;
177;SDS011;77;48.792;9.032;2023-06-10T13:50:18;9.10;;;5.90;;
177;SDS011;77;48.792;9.032;2023-06-10T13:52:43;7.20;;;5.60;;
177;SDS011;77;48.792;9.032;2023-06-10T13:55:08;8.20;;;6.03;;
177;SDS011;77;48.792;9.032;2023-06-10T13:57:34;9.07;;;5.50;;
177;SDS011;77;48.792;9.032;2023-06-10T13:59:59;8.97;;;6.20;;
177;SDS011;77;48.792;9.032;2023-06-10T14:02:24;7.90;;;6.00;;
177;SDS011;77;48.792;9.032;2023-06-10T14:04:49;7.43;;;6.00;;
177;SDS011;77;48.792;9.032;2023-06-10T14:07:16;10.53;;;6.00;;
177;SDS011;77;48.792;9.032;2023-06-10T14:09:41;8.90;;;5.70;;
177;SDS011;77;48.792;9.032;2023-06-10T14:12:06;9.17;;;6.13;;
177;SDS011;77;48.792;9.032;2023-06-10T14:14:32;7.70;;;5.90;;
177;SDS011;77;48.792;9.032;2023-06-10T14:16:57;8.37;;;6.13;;
177;SDS011;77;48.792;9.032;2023-06-10T14:19:22;9.63;;;6.47;;
177;SDS011;77;48.792;9.032;2023-06-10T14:21:47;7.33;;;5.90;;
177;SDS011;77;48.792;9.032;2023-06-10T14:24:14;7.90;;;6.03;;
177;SDS011;77;48.792;9.032;2023-06-10T14:26:39;7.70;;;6.03;;
177;SDS011;77;48.792;9.032;2023-06-10T14:29:04;7.90;;;5.77;;
177;SDS011;77;48.792;9.032;2023-06-10T14:31:29;12.43;;;6.20;;
177;SDS011;77;48.792;9.032;2023-06-10T14:33:54;7.60;;;5.80;;
177;SDS011;77;48.792;9.032;2023-06-10T14:36:19;8.00;;;6.00;;
177;SDS011;77;48.792;9.032;2023-06-10T14:38:45;9.60;;;5.63;;
177;SDS011;77;48.792;9.032;2023-06-10T14:41:11;10.53;;;5.97;;
177;SDS011;77;48.792;9.032;2023-06-10T14:43:36;8.13;;;5.83;;
177;SDS011;77;48.792;9.032;2023-06-10T14:46:01;8.10;;;5.73;;
177;SDS011;77;48.792;9.032;2023-06-10T14:48:27;9.20;;;6.00;;
177;SDS011;77;48.792;9.032;2023-06-10T14:50:52;9.03;;;6.57;;
177;SDS011;77;48.792;9.032;2023-06-10T14:53:17;10.87;;;6.67;;
177;SDS011;77;48.792;9.032;2023-06-10T14:55:42;7.00;;;6.00;;
177;SDS011;77;48.792;9.032;2023-06-10T14:58:09;9.20;;;6.13;;
177;SDS011;77;48.792;9.032;2023-06-10T15:00:34;10.70;;;6.60;;
177;SDS011;77;48.792;9.032;2023-06-10T15:02:59;8.47;;;6.03;;
177;SDS011;77;48.792;9.032;2023-06-10T15:05:24;7.97;;;6.10;;
177;SDS011;77;48.792;9.032;2023-06-10T15:07:49;7.65;;;6.03;;
177;SDS011;77;48.792;9.032;2023-06-10T15:10:14;7.70;;;6.47;;
177;SDS011;77;48.792;9.032;2023-06-10T15:12:40;8.87;;;6.10;;
177;SDS011;77;48.792;9.032;2023-06-10T15:15:06;8.70;;;6.70;;
177;SDS011;77;48.792;9.032;2023-06-10T15:17:32;7.37;;;6.00;;
177;SDS011;77;48.792;9.032;2023-06-10T15:19:57;8.40;;;6.60;;
177;SDS011;77;48.792;9.032;2023-06-10T15:22:22;8.30;;;6.87;;
177;SDS011;77;48.792;9.032;2023-06-10T15:24:47;14.03;;;6.30;;
177;SDS011;77;48.792;9.032;2023-06-10T15:27:12;8.10;;;6.53;;
177;SDS011;77;48.792;9.032;2023-06-10T15:29:37;7.83;;;6.40;;
177;SDS011;77;48.792;9.032;2023-06-10T15:32:04;8.00;;;6.30;;
177;SDS011;77;48.792;9.032;2023-06-10T15:34:30;7.57;;;5.90;;
177;SDS011;77;48.792;9.032;2023-06-10T15:36:55;8.10;;;6.17;;